createdAt,value
2023-02-15T00:02:03.051Z,100757.21
2023-02-15T00:04:46.427Z,100753.02
2023-02-15T00:07:16.197Z,100751.91
2023-02-15T00:09:43.355Z,100750.46
2023-02-15T00:12:10.766Z,100747.07
2023-02-15T00:14:37.757Z,100746.25
2023-02-15T00:17:04.727Z,100746.23
2023-02-15T00:19:31.437Z,100740.41
2023-02-15T00:21:58.307Z,100743.15
2023-02-15T00:24:25.329Z,100741.90
2023-02-15T00:26:52.103Z,100744.16
2023-02-15T00:29:19.933Z,100739.55
2023-02-15T00:31:47.189Z,100735.03
2023-02-15T00:34:17.727Z,100734.52
2023-02-15T00:36:44.739Z,100733.35
2023-02-15T00:39:14.279Z,100728.90
2023-02-15T00:41:41.311Z,100728.40
2023-02-15T00:44:08.947Z,100721.37
2023-02-15T00:46:35.910Z,100720.17
2023-02-15T00:49:03.664Z,100715.27
2023-02-15T00:51:31.887Z,100714.48
2023-02-15T00:53:58.912Z,100713.41
2023-02-15T00:56:25.786Z,100709.55
2023-02-15T00:58:52.715Z,100706.56
2023-02-15T01:01:21.449Z,100703.64
2023-02-15T01:03:48.265Z,100705.58
2023-02-15T01:06:16.548Z,100705.52
2023-02-15T01:08:45.425Z,100706.51
2023-02-15T01:11:15.799Z,100708.33
2023-02-15T01:13:42.850Z,100704.49
2023-02-15T01:16:09.822Z,100702.09
2023-02-15T01:18:36.544Z,100703.00
2023-02-15T01:21:14.971Z,100699.73
2023-02-15T01:23:44.605Z,100696.45
2023-02-15T01:26:13.939Z,100698.47
2023-02-15T01:28:41.508Z,100694.67
2023-02-15T01:31:11.265Z,100691.05
2023-02-15T01:33:38.863Z,100688.46
2023-02-15T01:36:06.482Z,100681.60
2023-02-15T01:38:34.632Z,100682.46
2023-02-15T01:41:20.184Z,100679.70
2023-02-15T01:43:52.580Z,100673.80
2023-02-15T01:46:24.324Z,100672.24
2023-02-15T01:48:57.049Z,100672.98
2023-02-15T01:51:29.958Z,100669.25
2023-02-15T01:54:27.848Z,100664.05
2023-02-15T01:57:00.071Z,100660.41
2023-02-15T01:59:27.191Z,100659.53
2023-02-15T02:03:17.889Z,100655.61
2023-02-15T02:05:45.107Z,100657.39
2023-02-15T02:08:13.494Z,100651.55
2023-02-15T02:10:40.191Z,100650.11
2023-02-15T02:13:07.600Z,100645.65
2023-02-15T02:16:09.736Z,100649.17
2023-02-15T02:18:58.966Z,100643.97
2023-02-15T02:21:43.678Z,100638.33
2023-02-15T02:24:31.583Z,100631.34
2023-02-15T02:27:22.050Z,100629.98
2023-02-15T02:30:00.107Z,100625.45
2023-02-15T02:33:01.445Z,100623.73
2023-02-15T02:35:31.812Z,100621.56
2023-02-15T02:38:26.991Z,100621.89
2023-02-15T02:41:17.201Z,100626.71
2023-02-15T02:44:05.418Z,100621.14
2023-02-15T02:46:38.013Z,100618.00
2023-02-15T02:49:05.138Z,100616.20
2023-02-15T02:51:31.851Z,100621.16
2023-02-15T02:54:02.858Z,100615.25
2023-02-15T02:56:32.246Z,100618.00
2023-02-15T02:59:07.371Z,100617.89
2023-02-15T03:01:41.948Z,100619.65
2023-02-15T03:04:17.822Z,100620.08
2023-02-15T03:06:56.051Z,100619.30
2023-02-15T03:09:35.019Z,100623.30
2023-02-15T03:12:04.025Z,100625.79
2023-02-15T03:14:34.571Z,100625.05
2023-02-15T03:17:03.001Z,100627.02
2023-02-15T03:19:33.757Z,100633.21
2023-02-15T03:22:21.945Z,100632.71
2023-02-15T03:24:57.997Z,100631.86
2023-02-15T03:27:28.684Z,100629.67
2023-02-15T03:29:59.762Z,100631.81
2023-02-15T03:32:30.753Z,100631.20
2023-02-15T03:34:57.886Z,100629.41
2023-02-15T03:37:47.618Z,100632.48
2023-02-15T03:40:47.788Z,100633.27
2023-02-15T03:43:24.145Z,100628.64
2023-02-15T03:45:56.638Z,100624.64
2023-02-15T03:48:38.533Z,100628.12
2023-02-15T03:51:28.268Z,100626.98
2023-02-15T03:53:57.119Z,100626.04
2023-02-15T03:56:24.765Z,100628.67
2023-02-15T03:59:09.878Z,100633.72
2023-02-15T04:01:57.907Z,100632.91
2023-02-15T04:04:31.378Z,100631.31
2023-02-15T04:06:58.220Z,100633.38
2023-02-15T04:09:43.515Z,100636.70
2023-02-15T04:12:10.537Z,100638.80
2023-02-15T04:14:55.799Z,100635.73
2023-02-15T04:17:22.608Z,100634.21
2023-02-15T04:20:08.218Z,100635.38
2023-02-15T04:22:54.428Z,100634.11
2023-02-15T04:25:21.379Z,100631.09
2023-02-15T04:27:53.319Z,100627.77
2023-02-15T04:30:23.756Z,100625.85
2023-02-15T04:32:51.526Z,100624.42
2023-02-15T04:35:18.630Z,100626.45
2023-02-15T04:37:45.489Z,100621.25
2023-02-15T04:40:19.118Z,100622.39
2023-02-15T04:42:49.428Z,100617.49
2023-02-15T04:45:17.278Z,100620.44
2023-02-15T04:47:44.089Z,100621.95
2023-02-15T04:50:11.406Z,100619.98
2023-02-15T04:52:38.505Z,100617.67
2023-02-15T04:55:05.556Z,100622.35
2023-02-15T04:57:32.391Z,100621.30
2023-02-15T04:59:59.486Z,100625.75
2023-02-15T05:02:26.154Z,100623.02
2023-02-15T05:04:53.062Z,100622.40
2023-02-15T05:07:20.754Z,100626.29
2023-02-15T05:09:48.080Z,100625.17
2023-02-15T05:12:15.083Z,100624.23
2023-02-15T05:14:41.916Z,100625.86
2023-02-15T05:17:08.564Z,100619.64
2023-02-15T05:19:35.454Z,100617.56
2023-02-15T05:22:02.229Z,100618.33
2023-02-15T05:24:47.824Z,100619.77
2023-02-15T05:27:33.531Z,100620.30
2023-02-15T05:30:00.479Z,100620.94
2023-02-15T05:32:27.685Z,100618.50
2023-02-15T05:34:54.565Z,100620.08
2023-02-15T05:37:21.198Z,100620.37
2023-02-15T05:39:48.226Z,100617.15
2023-02-15T05:42:15.034Z,100616.44
2023-02-15T05:44:41.875Z,100615.64
2023-02-15T05:47:08.651Z,100614.21
2023-02-15T05:49:35.479Z,100613.73
2023-02-15T05:52:03.298Z,100611.77
2023-02-15T05:54:30.282Z,100611.46
2023-02-15T05:56:56.997Z,100613.31
2023-02-15T05:59:23.781Z,100609.88
2023-02-15T06:01:50.863Z,100607.86
2023-02-15T06:04:17.579Z,100612.61
2023-02-15T06:06:44.243Z,100616.82
2023-02-15T06:09:13.057Z,100610.67
2023-02-15T06:11:40.267Z,100610.84
2023-02-15T06:14:07.493Z,100614.88
2023-02-15T06:16:34.332Z,100612.37
2023-02-15T06:19:02.157Z,100615.61
2023-02-15T06:21:30.403Z,100618.34
2023-02-15T06:23:57.933Z,100617.90
2023-02-15T06:26:25.019Z,100620.27
2023-02-15T06:28:51.767Z,100619.38
2023-02-15T06:31:18.868Z,100616.89
2023-02-15T06:33:45.745Z,100618.71
2023-02-15T06:36:12.983Z,100618.98
2023-02-15T06:38:39.953Z,100618.67
2023-02-15T06:41:06.870Z,100618.88
2023-02-15T06:43:34.639Z,100617.54
2023-02-15T06:46:01.899Z,100614.73
2023-02-15T06:48:28.815Z,100613.11
2023-02-15T06:50:55.919Z,100618.17
2023-02-15T06:53:22.825Z,100614.88
2023-02-15T06:55:49.472Z,100613.83
2023-02-15T06:58:16.288Z,100617.92
2023-02-15T07:00:43.288Z,100615.67
2023-02-15T07:03:10.030Z,100616.13
2023-02-15T07:05:37.068Z,100612.60
2023-02-15T07:08:04.045Z,100612.73
2023-02-15T07:10:30.738Z,100609.48
2023-02-15T07:12:57.545Z,100614.28
2023-02-15T07:15:24.749Z,100613.88
2023-02-15T07:17:51.607Z,100614.18
2023-02-15T07:20:21.185Z,100612.07
2023-02-15T07:22:48.678Z,100608.55
2023-02-15T07:25:16.417Z,100604.13
2023-02-15T07:27:45.094Z,100599.45
2023-02-15T07:30:15.135Z,100599.70
2023-02-15T07:33:04.864Z,100597.03
2023-02-15T07:35:33.193Z,100590.77
2023-02-15T07:38:00.923Z,100590.49
2023-02-15T07:40:27.776Z,100588.55
2023-02-15T07:42:59.245Z,100590.63
2023-02-15T07:45:25.933Z,100595.02
2023-02-15T07:47:52.740Z,100593.78
2023-02-15T07:50:19.779Z,100590.96
2023-02-15T07:52:46.465Z,100591.70
2023-02-15T07:55:13.252Z,100586.65
2023-02-15T07:57:47.967Z,100584.77
2023-02-15T08:00:17.223Z,100582.95
2023-02-15T08:03:10.605Z,100581.94
2023-02-15T08:05:38.012Z,100581.85
2023-02-15T08:08:04.878Z,100578.39
2023-02-15T08:10:50.683Z,100576.48
2023-02-15T08:13:17.711Z,100573.91
2023-02-15T08:15:51.292Z,100569.48
2023-02-15T08:18:18.567Z,100566.45
2023-02-15T08:20:50.229Z,100561.30
2023-02-15T08:23:16.877Z,100564.04
2023-02-15T08:25:44.152Z,100564.25
2023-02-15T08:28:11.509Z,100561.14
2023-02-15T08:30:38.220Z,100559.39
2023-02-15T08:33:05.104Z,100556.39
2023-02-15T08:35:31.957Z,100559.05
2023-02-15T08:37:58.586Z,100563.61
2023-02-15T08:40:25.442Z,100559.48
2023-02-15T08:42:52.206Z,100555.65
2023-02-15T08:45:18.884Z,100553.89
2023-02-15T08:47:45.893Z,100550.64
2023-02-15T08:50:12.995Z,100550.77
2023-02-15T08:52:39.574Z,100544.91
2023-02-15T08:55:06.668Z,100539.95
2023-02-15T08:57:33.572Z,100542.02
2023-02-15T09:00:00.350Z,100545.16
2023-02-15T09:02:27.428Z,100544.00
2023-02-15T09:04:54.387Z,100542.72
2023-02-15T09:07:21.047Z,100537.57
2023-02-15T09:09:47.909Z,100535.45
2023-02-15T09:12:14.706Z,100535.43
2023-02-15T09:14:41.377Z,100530.44
2023-02-15T09:17:08.263Z,100528.73
2023-02-15T09:19:35.117Z,100526.05
2023-02-15T09:22:01.785Z,100534.02
2023-02-15T09:24:34.249Z,100523.80
2023-02-15T09:27:01.170Z,100521.10
2023-02-15T09:29:27.831Z,100519.05
2023-02-15T09:31:55.090Z,100517.70
2023-02-15T09:34:23.425Z,100521.39
2023-02-15T09:36:51.261Z,100517.58
2023-02-15T09:39:21.501Z,100519.52
2023-02-15T09:42:07.204Z,100525.24
2023-02-15T09:44:34.066Z,100522.52
2023-02-15T09:47:34.733Z,100522.44
2023-02-15T09:50:16.537Z,100524.19
2023-02-15T09:53:03.541Z,100516.91
2023-02-15T09:56:06.273Z,100516.59
2023-02-15T09:58:44.965Z,100514.93
2023-02-15T10:01:25.466Z,100511.58
2023-02-15T10:04:10.364Z,100506.26
2023-02-15T10:06:47.239Z,100504.58
2023-02-15T10:09:39.194Z,100501.77
2023-02-15T10:12:57.344Z,100503.29
2023-02-15T10:15:39.232Z,100500.96
2023-02-15T10:18:12.729Z,100496.02
2023-02-15T10:21:04.489Z,100494.29
2023-02-15T10:23:41.767Z,100488.94
2023-02-15T10:26:23.205Z,100486.28
2023-02-15T10:28:50.061Z,100488.05
2023-02-15T10:31:26.857Z,100485.73
2023-02-15T10:34:09.419Z,100481.09
2023-02-15T10:37:18.140Z,100480.89
2023-02-15T10:40:04.027Z,100481.01
2023-02-15T10:42:53.641Z,100479.40
2023-02-15T10:45:35.780Z,100471.70
2023-02-15T10:48:40.422Z,100468.00
2023-02-15T10:51:15.436Z,100466.45
2023-02-15T10:54:06.113Z,100467.20
2023-02-15T10:57:08.032Z,100464.67
2023-02-15T10:59:40.591Z,100458.96
2023-02-15T11:02:26.028Z,100460.83
2023-02-15T11:05:13.895Z,100459.88
2023-02-15T11:07:44.265Z,100455.71
2023-02-15T11:10:13.713Z,100451.31
2023-02-15T11:12:43.536Z,100447.64
2023-02-15T11:15:20.259Z,100440.67
2023-02-15T11:17:56.000Z,100436.33
2023-02-15T11:20:46.772Z,100432.28
2023-02-15T11:23:16.665Z,100431.90
2023-02-15T11:25:47.162Z,100431.99
2023-02-15T11:28:28.399Z,100428.23
2023-02-15T11:30:57.332Z,100423.23
2023-02-15T11:33:30.949Z,100414.31
2023-02-15T11:36:07.188Z,100407.84
2023-02-15T11:38:35.564Z,100403.63
2023-02-15T11:41:09.223Z,100405.41
2023-02-15T11:43:45.341Z,100402.00
2023-02-15T11:46:13.306Z,100403.91
2023-02-15T11:48:40.194Z,100404.51
2023-02-15T11:51:14.190Z,100403.65
2023-02-15T11:53:41.350Z,100401.42
2023-02-15T11:56:15.310Z,100398.83
2023-02-15T11:59:03.347Z,100394.32
2023-02-15T12:01:46.329Z,100391.40
2023-02-15T12:04:40.711Z,100386.94
2023-02-15T12:07:18.387Z,100383.11
2023-02-15T12:10:14.465Z,100378.47
2023-02-15T12:12:41.457Z,100378.44
2023-02-15T12:15:10.601Z,100378.60
2023-02-15T12:17:48.939Z,100370.60
2023-02-15T12:20:15.871Z,100364.58
2023-02-15T12:23:02.611Z,100364.64
2023-02-15T12:25:44.050Z,100362.83
2023-02-15T12:28:39.660Z,100363.52
2023-02-15T12:31:24.507Z,100361.41
2023-02-15T12:33:54.526Z,100360.12
2023-02-15T12:36:24.367Z,100356.73
2023-02-15T12:39:19.942Z,100355.14
2023-02-15T12:42:16.875Z,100352.52
2023-02-15T12:44:56.806Z,100345.59
2023-02-15T12:47:28.862Z,100349.24
2023-02-15T12:50:12.130Z,100341.45
2023-02-15T12:52:40.110Z,100339.67
2023-02-15T12:55:31.364Z,100339.52
2023-02-15T12:58:07.157Z,100335.63
2023-02-15T13:00:35.235Z,100333.17
2023-02-15T13:03:03.226Z,100330.61
2023-02-15T13:05:36.375Z,100324.02
2023-02-15T13:08:21.936Z,100319.32
2023-02-15T13:11:03.197Z,100315.23
2023-02-15T13:13:32.472Z,100309.10
2023-02-15T13:16:07.948Z,100308.50
2023-02-15T13:18:38.183Z,100309.56
2023-02-15T13:21:14.912Z,100303.77
2023-02-15T13:23:48.601Z,100302.31
2023-02-15T13:26:20.401Z,100300.46
2023-02-15T13:28:51.112Z,100295.01
2023-02-15T13:31:20.202Z,100298.88
2023-02-15T13:33:55.688Z,100297.80
2023-02-15T13:36:30.596Z,100294.78
2023-02-15T13:39:12.362Z,100293.67
2023-02-15T13:41:56.777Z,100291.59
2023-02-15T13:44:32.164Z,100290.20
2023-02-15T13:47:50.096Z,100285.00
2023-02-15T13:50:36.895Z,100284.63
2023-02-15T13:53:22.637Z,100281.17
2023-02-15T13:56:02.202Z,100275.34
2023-02-15T13:59:01.223Z,100267.27
2023-02-15T14:01:34.907Z,100264.56
2023-02-15T14:04:50.942Z,100261.20
2023-02-15T14:07:25.275Z,100257.70
2023-02-15T14:10:11.033Z,100256.23
2023-02-15T14:13:03.810Z,100256.35
2023-02-15T14:15:52.519Z,100255.66
2023-02-15T14:18:37.891Z,100250.10
2023-02-15T14:21:25.510Z,100254.36
2023-02-15T14:24:30.482Z,100253.02
2023-02-15T14:27:18.297Z,100252.45
2023-02-15T14:30:05.526Z,100252.09
2023-02-15T14:33:28.116Z,100249.69
2023-02-15T14:35:57.602Z,100246.17
2023-02-15T14:38:47.574Z,100243.02
2023-02-15T14:41:29.941Z,100238.79
2023-02-15T14:44:22.476Z,100241.39
2023-02-15T14:46:58.844Z,100237.34
2023-02-15T14:49:27.963Z,100235.08
2023-02-15T14:51:58.303Z,100237.13
2023-02-15T14:54:25.184Z,100235.11
2023-02-15T14:57:00.683Z,100234.70
2023-02-15T14:59:50.954Z,100231.24
2023-02-15T15:02:27.931Z,100228.14
2023-02-15T15:05:17.927Z,100226.92
2023-02-15T15:07:48.990Z,100222.06
2023-02-15T15:10:21.000Z,100222.98
2023-02-15T15:12:58.053Z,100220.52
2023-02-15T15:15:28.347Z,100218.30
2023-02-15T15:18:04.887Z,100215.76
2023-02-15T15:20:41.515Z,100218.03
2023-02-15T15:23:20.383Z,100216.34
2023-02-15T15:26:23.998Z,100217.98
2023-02-15T15:28:50.873Z,100211.21
2023-02-15T15:31:29.829Z,100209.33
2023-02-15T15:34:28.310Z,100210.21
2023-02-15T15:37:32.326Z,100205.78
2023-02-15T15:40:43.552Z,100206.02
2023-02-15T15:43:34.373Z,100200.92
2023-02-15T15:46:31.114Z,100200.84
2023-02-15T15:49:03.616Z,100195.98
2023-02-15T15:51:33.583Z,100194.69
2023-02-15T15:54:02.862Z,100190.06
2023-02-15T15:56:36.384Z,100187.05
2023-02-15T15:59:14.796Z,100179.84
2023-02-15T16:01:46.185Z,100183.92
2023-02-15T16:04:23.430Z,100182.32
2023-02-15T16:06:50.469Z,100181.05
2023-02-15T16:09:19.273Z,100178.64
2023-02-15T16:11:52.813Z,100176.91
2023-02-15T16:14:29.773Z,100174.16
2023-02-15T16:17:02.507Z,100173.01
2023-02-15T16:19:50.692Z,100175.00
2023-02-15T16:22:24.828Z,100172.87
2023-02-15T16:25:16.222Z,100177.73
2023-02-15T16:27:44.269Z,100177.68
2023-02-15T16:30:30.006Z,100176.34
2023-02-15T16:33:16.442Z,100176.39
2023-02-15T16:35:57.629Z,100168.47
2023-02-15T16:38:47.529Z,100166.38
2023-02-15T16:41:30.512Z,100161.93
2023-02-15T16:44:05.456Z,100158.20
2023-02-15T16:46:38.295Z,100152.30
2023-02-15T16:49:16.144Z,100152.75
2023-02-15T16:51:47.976Z,100153.51
2023-02-15T16:54:20.452Z,100149.58
2023-02-15T16:56:48.076Z,100147.09
2023-02-15T16:59:27.998Z,100144.70
2023-02-15T17:01:54.936Z,100147.89
2023-02-15T17:04:22.127Z,100148.63
2023-02-15T17:07:17.456Z,100152.01
2023-02-15T17:09:55.958Z,100148.89
2023-02-15T17:12:56.047Z,100147.55
2023-02-15T17:15:37.675Z,100144.48
2023-02-15T17:18:10.917Z,100139.46
2023-02-15T17:20:42.124Z,100138.63
2023-02-15T17:23:29.214Z,100138.67
2023-02-15T17:25:57.383Z,100135.67
2023-02-15T17:28:28.126Z,100135.00
2023-02-15T17:30:56.556Z,100132.41
2023-02-15T17:33:36.878Z,100129.73
2023-02-15T17:36:07.046Z,100126.25
2023-02-15T17:38:34.175Z,100126.02
2023-02-15T17:41:01.322Z,100123.98
2023-02-15T17:43:28.384Z,100123.55
2023-02-15T17:45:57.915Z,100121.88
2023-02-15T17:48:33.065Z,100117.69
2023-02-15T17:51:06.778Z,100117.85
2023-02-15T17:53:33.932Z,100120.59
2023-02-15T17:56:09.984Z,100115.54
2023-02-15T17:58:37.322Z,100115.01
2023-02-15T18:01:37.678Z,100115.20
2023-02-15T18:04:24.333Z,100112.08
2023-02-15T18:07:09.621Z,100106.73
2023-02-15T18:09:54.948Z,100104.50
2023-02-15T18:12:28.837Z,100101.31
2023-02-15T18:14:57.074Z,100102.49
2023-02-15T18:17:39.023Z,100100.09
2023-02-15T18:20:15.414Z,100097.13
2023-02-15T18:22:42.288Z,100097.98
2023-02-15T18:25:21.147Z,100095.20
2023-02-15T18:27:47.937Z,100098.17
2023-02-15T18:30:18.168Z,100092.57
2023-02-15T18:32:46.870Z,100091.27
2023-02-15T18:35:19.421Z,100090.83
2023-02-15T18:37:47.198Z,100089.88
2023-02-15T18:40:16.835Z,100088.55
2023-02-15T18:42:47.228Z,100084.56
2023-02-15T18:45:21.774Z,100086.56
2023-02-15T18:47:48.925Z,100082.73
2023-02-15T18:50:18.134Z,100082.11
2023-02-15T18:52:46.358Z,100078.15
2023-02-15T18:55:20.459Z,100074.63
2023-02-15T18:57:48.601Z,100069.17
2023-02-15T19:00:19.189Z,100067.80
2023-02-15T19:02:47.337Z,100070.71
2023-02-15T19:05:15.823Z,100070.39
2023-02-15T19:07:44.781Z,100073.05
2023-02-15T19:10:16.030Z,100067.85
2023-02-15T19:12:43.729Z,100059.15
2023-02-15T19:15:24.143Z,100059.57
2023-02-15T19:17:51.998Z,100060.27
2023-02-15T19:20:21.861Z,100059.34
2023-02-15T19:22:50.271Z,100057.71
2023-02-15T19:25:21.554Z,100053.59
2023-02-15T19:27:48.688Z,100050.22
2023-02-15T19:30:28.148Z,100051.02
2023-02-15T19:32:56.308Z,100043.52
2023-02-15T19:35:32.367Z,100042.36
2023-02-15T19:38:02.458Z,100038.18
2023-02-15T19:40:32.294Z,100039.61
2023-02-15T19:42:59.490Z,100036.65
2023-02-15T19:45:29.018Z,100032.14
2023-02-15T19:47:56.598Z,100029.39
2023-02-15T19:50:28.057Z,100034.83
2023-02-15T19:52:55.420Z,100029.35
2023-02-15T19:55:31.056Z,100024.36
2023-02-15T19:57:58.952Z,100021.77
2023-02-15T20:00:33.585Z,100021.35
2023-02-15T20:03:00.779Z,100019.33
2023-02-15T20:05:34.307Z,100016.20
2023-02-15T20:08:03.445Z,100016.00
2023-02-15T20:10:31.429Z,100012.83
2023-02-15T20:12:58.770Z,100010.60
2023-02-15T20:15:28.620Z,100008.91
2023-02-15T20:17:57.329Z,100009.69
2023-02-15T20:20:30.999Z,100012.85
2023-02-15T20:22:57.869Z,100008.77
2023-02-15T20:25:27.038Z,100007.08
2023-02-15T20:27:55.193Z,100006.88
2023-02-15T20:30:25.590Z,100001.77
2023-02-15T20:32:52.314Z,99997.86
2023-02-15T20:35:22.060Z,99996.98
2023-02-15T20:37:54.440Z,99996.20
2023-02-15T20:40:24.940Z,99996.52
2023-02-15T20:42:51.696Z,99994.88
2023-02-15T20:45:26.930Z,99992.26
2023-02-15T20:47:53.858Z,99996.61
2023-02-15T20:50:26.955Z,99989.14
2023-02-15T20:52:55.551Z,99986.80
2023-02-15T20:55:25.913Z,99986.36
2023-02-15T20:57:52.811Z,99983.17
2023-02-15T21:00:23.354Z,99979.48
2023-02-15T21:02:54.369Z,99981.73
2023-02-15T21:05:27.361Z,99977.92
2023-02-15T21:07:54.192Z,99982.36
2023-02-15T21:10:25.298Z,99982.53
2023-02-15T21:12:53.363Z,99978.34
2023-02-15T21:15:33.060Z,99986.71
2023-02-15T21:18:05.629Z,99984.60
2023-02-15T21:20:34.485Z,99988.90
2023-02-15T21:23:04.140Z,99983.85
2023-02-15T21:25:36.310Z,99981.23
2023-02-15T21:28:04.195Z,99982.95
2023-02-15T21:30:30.995Z,99984.30
2023-02-15T21:32:57.986Z,99979.48
2023-02-15T21:35:25.351Z,99977.32
2023-02-15T21:37:52.761Z,99974.81
2023-02-15T21:40:23.132Z,99968.55
2023-02-15T21:43:08.718Z,99959.76
2023-02-15T21:45:54.761Z,99961.31
2023-02-15T21:48:21.722Z,99963.45
2023-02-15T21:51:10.807Z,99962.02
2023-02-15T21:53:45.232Z,99956.74
2023-02-15T21:56:17.898Z,99959.45
2023-02-15T21:58:44.954Z,99955.27
2023-02-15T22:01:25.264Z,99957.24
2023-02-15T22:03:55.209Z,99957.98
2023-02-15T22:06:22.678Z,99962.32
2023-02-15T22:08:49.691Z,99956.96
2023-02-15T22:11:21.841Z,99949.63
2023-02-15T22:13:49.318Z,99947.27
2023-02-15T22:16:19.125Z,99945.31
2023-02-15T22:18:47.378Z,99939.17
2023-02-15T22:21:16.065Z,99934.63
2023-02-15T22:23:43.394Z,99930.73
2023-02-15T22:26:19.875Z,99926.94
2023-02-15T22:28:46.867Z,99924.76
2023-02-15T22:31:18.280Z,99921.27
2023-02-15T22:33:44.966Z,99918.98
2023-02-15T22:36:29.006Z,99922.56
2023-02-15T22:38:57.029Z,99919.77
2023-02-15T22:41:29.215Z,99916.48
2023-02-15T22:43:56.655Z,99912.65
2023-02-15T22:46:24.592Z,99907.23
2023-02-15T22:48:51.548Z,99908.01
2023-02-15T22:51:23.789Z,99907.19
2023-02-15T22:53:51.691Z,99902.36
2023-02-15T22:56:26.497Z,99897.75
2023-02-15T22:59:01.310Z,99901.38
2023-02-15T23:01:33.875Z,99899.14
2023-02-15T23:04:03.419Z,99899.86
2023-02-15T23:06:33.883Z,99893.39
2023-02-15T23:09:00.729Z,99884.57
2023-02-15T23:11:28.013Z,99885.30
2023-02-15T23:13:54.954Z,99882.64
2023-02-15T23:16:21.795Z,99883.85
2023-02-15T23:18:49.357Z,99878.54
2023-02-15T23:21:21.020Z,99880.52
2023-02-15T23:23:50.769Z,99883.88
2023-02-15T23:26:22.431Z,99884.63
2023-02-15T23:28:50.547Z,99885.86
2023-02-15T23:31:23.094Z,99884.21
2023-02-15T23:33:52.026Z,99887.80
2023-02-15T23:36:36.768Z,99888.85
2023-02-15T23:39:39.218Z,99881.13
2023-02-15T23:42:10.629Z,99881.30
2023-02-15T23:44:39.008Z,99882.32
2023-02-15T23:47:08.844Z,99877.00
2023-02-15T23:49:35.805Z,99867.75
2023-02-15T23:52:05.805Z,99864.80
2023-02-15T23:54:32.428Z,99856.27
2023-02-15T23:57:01.419Z,99856.42
2023-02-15T23:59:30.714Z,99852.17
